createdAt,value
2018-01-02T00:01:12.077Z,97.96
2018-01-02T00:03:39.485Z,97.76
2018-01-02T00:06:06.904Z,97.24
2018-01-02T00:08:34.309Z,97.31
2018-01-02T00:11:01.726Z,97.47
2018-01-02T00:13:29.142Z,97.55
2018-01-02T00:15:56.548Z,97.45
2018-01-02T00:18:23.954Z,97.42
2018-01-02T00:20:51.356Z,97.62
2018-01-02T00:23:18.777Z,97.63
2018-01-02T00:25:46.181Z,97.53
2018-01-02T00:28:13.588Z,97.14
2018-01-02T00:30:41.002Z,96.74
2018-01-02T00:33:08.414Z,96.47
2018-01-02T00:35:35.957Z,96.49
2018-01-02T00:38:03.352Z,96.50
2018-01-02T00:40:30.777Z,97.12
2018-01-02T00:42:58.181Z,97.15
2018-01-02T00:45:25.584Z,97.07
2018-01-02T00:47:52.992Z,96.92
2018-01-02T00:50:20.401Z,96.90
2018-01-02T00:52:47.814Z,96.76
2018-01-02T00:55:15.226Z,96.85
2018-01-02T00:57:42.649Z,96.89
2018-01-02T01:00:10.053Z,97.07
2018-01-02T01:02:37.468Z,97.21
2018-01-02T01:05:04.881Z,97.24
2018-01-02T01:07:32.289Z,97.30
2018-01-02T01:09:59.705Z,97.73
2018-01-02T01:12:27.125Z,97.47
2018-01-02T01:14:54.543Z,97.74
2018-01-02T01:17:21.951Z,97.52
2018-01-02T01:19:49.353Z,97.49
2018-01-02T01:22:16.762Z,97.35
2018-01-02T01:24:44.177Z,97.39
2018-01-02T01:27:11.588Z,97.21
2018-01-02T01:29:38.994Z,96.99
2018-01-02T01:32:06.416Z,97.14
2018-01-02T01:34:33.841Z,96.97
2018-01-02T01:37:01.244Z,96.91
2018-01-02T01:39:28.664Z,97.15
2018-01-02T01:41:56.074Z,97.08
2018-01-02T01:44:23.482Z,97.08
2018-01-02T01:46:50.882Z,97.29
2018-01-02T01:49:18.302Z,97.38
2018-01-02T01:51:45.705Z,97.31
2018-01-02T01:54:13.134Z,97.34
2018-01-02T01:56:40.536Z,97.29
2018-01-02T01:59:07.948Z,97.01
2018-01-02T02:01:35.355Z,97.12
2018-01-02T02:04:02.785Z,97.17
2018-01-02T02:06:30.201Z,96.94
2018-01-02T02:08:57.604Z,96.75
2018-01-02T02:11:25.028Z,96.82
2018-01-02T02:13:52.443Z,96.80
2018-01-02T02:16:19.840Z,96.79
2018-01-02T02:18:47.252Z,96.73
2018-01-02T02:21:14.758Z,96.77
2018-01-02T02:23:42.164Z,96.50
2018-01-02T02:26:09.569Z,96.31
2018-01-02T02:28:36.984Z,96.29
2018-01-02T02:31:04.397Z,96.21
2018-01-02T02:33:31.806Z,96.54
2018-01-02T02:35:59.208Z,97.14
2018-01-02T02:38:26.630Z,97.07
2018-01-02T02:41:05.830Z,96.78
2018-01-02T02:43:33.247Z,96.59
2018-01-02T02:46:00.685Z,96.61
2018-01-02T02:48:28.084Z,96.58
2018-01-02T02:50:55.511Z,96.35
2018-01-02T02:53:22.920Z,96.41
2018-01-02T02:55:50.336Z,96.27
2018-01-02T02:58:17.744Z,96.42
2018-01-02T03:00:45.149Z,96.24
2018-01-02T03:03:12.570Z,96.22
2018-01-02T03:05:39.969Z,95.97
2018-01-02T03:08:07.413Z,95.81
2018-01-02T03:10:34.828Z,95.87
2018-01-02T03:13:02.229Z,95.82
2018-01-02T03:15:29.644Z,95.66
2018-01-02T03:17:57.060Z,95.67
2018-01-02T03:20:24.478Z,95.63
2018-01-02T03:22:51.885Z,95.85
2018-01-02T03:25:19.296Z,95.73
2018-01-02T03:27:46.702Z,96.07
2018-01-02T03:30:14.105Z,96.19
2018-01-02T03:32:41.518Z,96.29
2018-01-02T03:35:08.930Z,96.42
2018-01-02T03:37:36.361Z,96.66
2018-01-02T03:40:03.774Z,96.35
2018-01-02T03:42:31.450Z,96.25
2018-01-02T03:44:58.855Z,96.54
2018-01-02T03:47:26.261Z,96.43
2018-01-02T03:49:53.675Z,96.29
2018-01-02T03:52:21.076Z,96.31
2018-01-02T03:54:48.496Z,96.31
2018-01-02T03:57:15.919Z,96.15
2018-01-02T03:59:43.321Z,96.46
2018-01-02T04:02:10.749Z,96.61
2018-01-02T04:04:38.348Z,95.19
2018-01-02T04:07:05.762Z,95.20
2018-01-02T04:09:33.173Z,95.53
2018-01-02T04:12:00.588Z,95.81
2018-01-02T04:14:27.996Z,95.85
2018-01-02T04:16:55.400Z,96.12
2018-01-02T04:19:22.809Z,96.40
2018-01-02T04:21:50.220Z,96.57
2018-01-02T04:24:17.630Z,96.96
2018-01-02T04:26:45.029Z,96.62
2018-01-02T04:29:12.444Z,96.49
2018-01-02T04:31:39.852Z,96.68
2018-01-02T04:34:07.252Z,96.88
2018-01-02T04:36:34.668Z,97.12
2018-01-02T04:39:02.073Z,97.23
2018-01-02T04:41:29.494Z,97.10
2018-01-02T04:43:56.897Z,97.20
2018-01-02T04:46:24.305Z,96.52
2018-01-02T04:48:51.713Z,97.01
2018-01-02T04:51:19.118Z,96.94
2018-01-02T04:53:46.548Z,96.50
2018-01-02T04:56:13.954Z,96.32
2018-01-02T04:58:41.363Z,96.14
2018-01-02T05:01:08.769Z,96.12
2018-01-02T05:03:36.185Z,96.33
2018-01-02T05:06:03.602Z,96.42
2018-01-02T05:08:31.001Z,96.39
2018-01-02T05:10:58.408Z,96.53
2018-01-02T05:13:25.832Z,96.43
2018-01-02T05:15:53.241Z,96.25
2018-01-02T05:18:20.680Z,96.27
2018-01-02T05:20:48.088Z,96.24
2018-01-02T05:23:15.536Z,96.36
2018-01-02T05:25:42.937Z,96.42
2018-01-02T05:28:10.345Z,96.55
2018-01-02T05:30:37.773Z,96.39
2018-01-02T05:33:05.171Z,96.54
2018-01-02T05:35:32.577Z,96.75
2018-01-02T05:38:00.010Z,96.70
2018-01-02T05:40:27.453Z,96.91
2018-01-02T05:42:54.880Z,97.25
2018-01-02T05:45:22.281Z,97.20
2018-01-02T05:47:49.688Z,97.24
2018-01-02T05:50:17.092Z,97.49
2018-01-02T05:52:44.501Z,97.66
2018-01-02T05:55:11.920Z,97.64
2018-01-02T05:57:39.323Z,97.97
2018-01-02T06:00:06.729Z,97.84
2018-01-02T06:02:34.136Z,97.71
2018-01-02T06:05:01.537Z,97.70
2018-01-02T06:07:28.961Z,97.70
2018-01-02T06:09:56.377Z,97.75
2018-01-02T06:12:23.781Z,97.87
2018-01-02T06:14:52.153Z,97.97
2018-01-02T06:17:19.565Z,98.00
2018-01-02T06:19:46.985Z,98.06
2018-01-02T06:22:14.388Z,98.13
2018-01-02T06:24:41.795Z,97.93
2018-01-02T06:27:09.208Z,97.82
2018-01-02T06:29:36.624Z,97.81
2018-01-02T06:32:04.053Z,97.77
2018-01-02T06:34:31.465Z,97.65
2018-01-02T06:36:58.878Z,97.53
2018-01-02T06:39:26.285Z,97.41
2018-01-02T06:41:53.690Z,97.50
2018-01-02T06:44:21.129Z,97.52
2018-01-02T06:46:48.537Z,97.52
2018-01-02T06:49:15.946Z,97.19
2018-01-02T06:51:43.357Z,96.81
2018-01-02T06:54:10.762Z,96.84
2018-01-02T06:56:38.182Z,96.71
2018-01-02T06:59:05.591Z,96.15
2018-01-02T07:01:33.002Z,96.39
2018-01-02T07:04:00.413Z,96.33
2018-01-02T07:06:27.812Z,96.79
2018-01-02T07:08:55.253Z,96.73
2018-01-02T07:11:22.657Z,96.69
2018-01-02T07:13:50.074Z,96.81
2018-01-02T07:16:17.474Z,97.29
2018-01-02T07:18:44.886Z,96.96
2018-01-02T07:21:12.293Z,97.02
2018-01-02T07:23:39.692Z,97.22
2018-01-02T07:26:07.120Z,96.92
2018-01-02T07:28:34.520Z,97.44
2018-01-02T07:31:01.930Z,97.19
2018-01-02T07:33:29.337Z,97.09
2018-01-02T07:35:56.745Z,97.22
2018-01-02T07:38:24.160Z,97.04
2018-01-02T07:40:51.627Z,97.64
2018-01-02T07:43:19.052Z,97.51
2018-01-02T07:45:46.444Z,97.39
2018-01-02T07:48:13.841Z,97.32
2018-01-02T07:50:41.258Z,97.23
2018-01-02T07:53:08.661Z,97.15
2018-01-02T07:55:36.075Z,96.89
2018-01-02T07:58:03.473Z,97.09
2018-01-02T08:00:30.904Z,96.83
2018-01-02T08:02:58.308Z,96.70
2018-01-02T08:05:25.717Z,96.62
2018-01-02T08:07:53.133Z,96.48
2018-01-02T08:10:20.553Z,96.58
2018-01-02T08:12:47.950Z,96.48
2018-01-02T08:15:15.366Z,96.63
2018-01-02T08:17:42.781Z,96.35
2018-01-02T08:20:10.180Z,96.07
2018-01-02T08:22:37.581Z,94.60
2018-01-02T08:25:05.051Z,95.22
2018-01-02T08:27:32.401Z,94.91
2018-01-02T08:29:59.825Z,94.56
2018-01-02T08:32:27.233Z,95.06
2018-01-02T08:34:54.648Z,94.66
2018-01-02T08:37:22.069Z,94.65
2018-01-02T08:39:49.481Z,93.76
2018-01-02T08:42:16.905Z,93.66
2018-01-02T08:44:44.305Z,93.55
2018-01-02T08:47:11.715Z,93.36
2018-01-02T08:49:39.116Z,92.79
2018-01-02T08:52:06.550Z,92.09
2018-01-02T08:54:33.953Z,91.73
2018-01-02T08:57:01.352Z,91.94
2018-01-02T08:59:28.760Z,92.64
2018-01-02T09:01:56.489Z,91.80
2018-01-02T09:04:23.902Z,92.70
2018-01-02T09:06:51.310Z,91.50
2018-01-02T09:09:18.733Z,91.53
2018-01-02T09:11:46.146Z,91.57
2018-01-02T09:14:13.545Z,91.18
2018-01-02T09:16:40.957Z,91.60
2018-01-02T09:19:08.353Z,91.51
2018-01-02T09:21:35.773Z,91.25
2018-01-02T09:24:03.180Z,91.44
2018-01-02T09:26:30.601Z,89.94
2018-01-02T09:28:58.036Z,90.05
2018-01-02T09:31:25.441Z,90.22
2018-01-02T09:33:52.849Z,90.40
2018-01-02T09:36:20.257Z,89.50
2018-01-02T09:38:47.668Z,89.60
2018-01-02T09:41:15.084Z,89.95
2018-01-02T09:43:42.507Z,90.22
2018-01-02T09:46:11.166Z,89.45
2018-01-02T09:48:45.369Z,89.80
2018-01-02T09:51:12.784Z,89.65
2018-01-02T09:53:40.189Z,90.23
2018-01-02T09:56:07.617Z,89.25
2018-01-02T09:58:35.021Z,88.54
2018-01-02T10:01:02.434Z,89.70
2018-01-02T10:03:29.844Z,89.77
2018-01-02T10:05:57.298Z,90.49
2018-01-02T10:08:24.714Z,90.52
2018-01-02T10:10:52.229Z,90.50
2018-01-02T10:13:19.647Z,90.90
2018-01-02T10:15:47.057Z,91.18
2018-01-02T10:18:14.487Z,90.04
2018-01-02T10:20:41.884Z,90.38
2018-01-02T10:23:09.301Z,89.88
2018-01-02T10:25:36.733Z,90.47
2018-01-02T10:28:04.150Z,90.02
2018-01-02T10:30:31.571Z,90.33
2018-01-02T10:32:58.972Z,90.24
2018-01-02T10:35:26.410Z,89.43
2018-01-02T10:37:54.646Z,90.74
2018-01-02T10:40:22.057Z,90.79
2018-01-02T10:42:49.468Z,91.04
2018-01-02T10:45:16.899Z,90.30
2018-01-02T10:47:44.313Z,89.85
2018-01-02T10:50:11.771Z,89.40
2018-01-02T10:52:39.144Z,89.78
2018-01-02T10:55:06.557Z,90.17
2018-01-02T10:57:33.974Z,89.95
2018-01-02T11:00:01.385Z,88.87
2018-01-02T11:02:28.808Z,89.56
2018-01-02T11:04:56.243Z,89.43
2018-01-02T11:07:23.666Z,87.51
2018-01-02T11:09:51.127Z,87.85
2018-01-02T11:12:18.536Z,87.87
2018-01-02T11:14:46.733Z,87.77
2018-01-02T11:17:14.148Z,86.94
2018-01-02T11:19:41.560Z,86.48
2018-01-02T11:22:08.969Z,87.16
2018-01-02T11:24:36.385Z,86.25
2018-01-02T11:27:03.793Z,85.66
2018-01-02T11:29:31.222Z,84.75
2018-01-02T11:31:58.628Z,85.02
2018-01-02T11:34:26.063Z,85.67
2018-01-02T11:36:53.464Z,85.24
2018-01-02T11:39:20.873Z,83.99
2018-01-02T11:41:48.286Z,84.41
2018-01-02T11:44:15.693Z,83.63
2018-01-02T11:46:43.109Z,83.78
2018-01-02T11:49:10.513Z,83.86
2018-01-02T11:51:37.933Z,83.98
2018-01-02T11:54:05.346Z,83.38
2018-01-02T11:56:32.761Z,82.69
2018-01-02T11:59:00.165Z,82.25
2018-01-02T12:01:27.572Z,82.25
2018-01-02T12:03:54.997Z,83.10
2018-01-02T12:06:22.401Z,83.44
2018-01-02T12:08:49.813Z,82.30
2018-01-02T12:11:17.228Z,82.12
2018-01-02T12:13:44.641Z,81.58
2018-01-02T12:16:12.049Z,82.46
2018-01-02T12:18:39.465Z,82.54
2018-01-02T12:21:06.873Z,81.95
2018-01-02T12:23:34.328Z,82.88
2018-01-02T12:26:01.762Z,80.49
2018-01-02T12:28:29.185Z,81.42
2018-01-02T12:30:56.609Z,81.43
2018-01-02T12:33:24.020Z,80.86
2018-01-02T12:35:51.445Z,81.37
2018-01-02T12:38:18.849Z,81.31
2018-01-02T12:40:46.264Z,80.13
2018-01-02T12:43:13.670Z,80.98
2018-01-02T12:45:41.086Z,81.38
2018-01-02T12:48:08.497Z,80.13
2018-01-02T12:50:35.920Z,79.98
2018-01-02T12:53:03.317Z,78.73
2018-01-02T12:55:30.732Z,79.02
2018-01-02T12:57:58.145Z,78.25
2018-01-02T13:00:25.625Z,78.34
2018-01-02T13:02:53.045Z,77.33
2018-01-02T13:05:20.458Z,78.39
2018-01-02T13:07:47.861Z,77.46
2018-01-02T13:10:15.278Z,76.75
2018-01-02T13:12:42.680Z,76.71
2018-01-02T13:15:10.098Z,76.65
2018-01-02T13:17:38.440Z,77.20
2018-01-02T13:20:05.844Z,77.27
2018-01-02T13:22:33.271Z,76.64
2018-01-02T13:25:00.700Z,76.27
2018-01-02T13:27:28.106Z,76.32
2018-01-02T13:29:55.532Z,75.70
2018-01-02T13:32:22.953Z,75.84
2018-01-02T13:34:50.369Z,75.59
2018-01-02T13:37:26.166Z,73.46
2018-01-02T13:39:53.577Z,75.09
2018-01-02T13:42:20.986Z,75.62
2018-01-02T13:44:48.392Z,74.88
2018-01-02T13:47:15.876Z,75.39
2018-01-02T13:49:43.273Z,75.59
2018-01-02T13:52:10.686Z,75.89
2018-01-02T13:54:38.098Z,76.42
2018-01-02T13:57:05.509Z,76.04
2018-01-02T13:59:32.916Z,76.30
2018-01-02T14:02:00.325Z,76.33
2018-01-02T14:04:27.765Z,76.78
2018-01-02T14:06:55.169Z,77.22
2018-01-02T14:09:22.632Z,76.75
2018-01-02T14:11:50.033Z,77.58
2018-01-02T14:14:17.436Z,77.97
2018-01-02T14:16:44.845Z,77.99
2018-01-02T14:19:12.248Z,77.63
2018-01-02T14:21:39.665Z,76.93
2018-01-02T14:24:07.069Z,78.25
2018-01-02T14:26:34.485Z,78.38
2018-01-02T14:29:01.896Z,78.64
2018-01-02T14:31:29.313Z,77.99
2018-01-02T14:33:56.717Z,78.33
2018-01-02T14:36:24.125Z,79.33
2018-01-02T14:38:51.558Z,78.13
2018-01-02T14:41:18.957Z,79.22
2018-01-02T14:43:46.364Z,79.06
2018-01-02T14:46:13.769Z,77.03
2018-01-02T14:48:41.186Z,78.96
2018-01-02T14:51:08.589Z,78.79
2018-01-02T14:53:36.005Z,77.86
2018-01-02T14:56:03.409Z,77.74
2018-01-02T14:58:30.827Z,78.85
2018-01-02T15:00:58.234Z,78.00
2018-01-02T15:03:25.654Z,78.30
2018-01-02T15:05:53.079Z,78.38
2018-01-02T15:08:20.490Z,78.95
2018-01-02T15:10:47.898Z,79.37
2018-01-02T15:13:15.321Z,79.92
2018-01-02T15:15:42.751Z,79.94
2018-01-02T15:18:10.164Z,80.58
2018-01-02T15:20:37.577Z,80.71
2018-01-02T15:23:05.007Z,81.10
2018-01-02T15:25:32.405Z,81.44
2018-01-02T15:27:59.832Z,81.55
2018-01-02T15:30:27.234Z,81.33
2018-01-02T15:32:54.641Z,81.28
2018-01-02T15:35:22.045Z,81.63
2018-01-02T15:37:49.470Z,81.73
2018-01-02T15:40:16.897Z,81.25
2018-01-02T15:42:44.349Z,81.21
2018-01-02T15:45:11.768Z,81.36
2018-01-02T15:47:39.179Z,80.92
2018-01-02T15:50:06.606Z,80.85
2018-01-02T15:52:34.014Z,80.62
2018-01-02T15:55:01.673Z,80.47
2018-01-02T15:57:29.092Z,80.27
2018-01-02T15:59:56.533Z,80.35
2018-01-02T16:02:23.942Z,79.67
2018-01-02T16:04:51.414Z,78.71
2018-01-02T16:07:18.840Z,79.25
2018-01-02T16:09:46.249Z,79.71
2018-01-02T16:12:13.650Z,79.81
2018-01-02T16:14:41.073Z,78.53
2018-01-02T16:17:08.481Z,78.99
2018-01-02T16:19:35.883Z,79.59
2018-01-02T16:22:03.317Z,79.34
2018-01-02T16:24:32.325Z,79.11
2018-01-02T16:26:59.773Z,80.10
2018-01-02T16:29:27.209Z,79.99
2018-01-02T16:31:54.613Z,80.38
2018-01-02T16:34:22.047Z,79.76
2018-01-02T16:36:49.456Z,80.36
2018-01-02T16:39:16.901Z,80.10
2018-01-02T16:41:44.306Z,78.67
2018-01-02T16:44:11.826Z,79.68
2018-01-02T16:46:39.228Z,80.28
2018-01-02T16:49:06.671Z,79.59
2018-01-02T16:51:34.081Z,79.35
2018-01-02T16:54:01.941Z,79.14
2018-01-02T16:56:29.377Z,79.15
2018-01-02T16:58:56.784Z,78.94
2018-01-02T17:01:24.234Z,79.65
2018-01-02T17:03:53.161Z,79.40
2018-01-02T17:06:20.564Z,79.31
2018-01-02T17:08:47.977Z,79.08
2018-01-02T17:11:23.213Z,78.98
2018-01-02T17:13:50.629Z,78.68
2018-01-02T17:16:18.061Z,79.11
2018-01-02T17:18:45.526Z,79.44
2018-01-02T17:21:12.921Z,78.64
2018-01-02T17:23:40.329Z,79.06
2018-01-02T17:26:07.789Z,79.12
2018-01-02T17:28:35.197Z,79.50
2018-01-02T17:31:02.645Z,78.96
2018-01-02T17:33:30.064Z,79.50
2018-01-02T17:35:57.485Z,78.75
2018-01-02T17:38:24.897Z,79.65
2018-01-02T17:40:52.317Z,78.77
2018-01-02T17:43:19.724Z,78.60
2018-01-02T17:45:47.138Z,79.38
2018-01-02T17:48:14.541Z,78.98
2018-01-02T17:50:41.944Z,79.57
2018-01-02T17:53:09.361Z,80.10
2018-01-02T17:55:36.780Z,79.66
2018-01-02T17:58:04.244Z,79.51
2018-01-02T18:00:31.615Z,79.41
2018-01-02T18:02:59.013Z,79.75
2018-01-02T18:05:26.467Z,80.00
2018-01-02T18:07:53.858Z,79.57
2018-01-02T18:10:21.282Z,80.10
2018-01-02T18:12:48.685Z,79.65
2018-01-02T18:15:16.089Z,79.84
2018-01-02T18:17:43.501Z,80.15
2018-01-02T18:20:10.906Z,79.89
2018-01-02T18:22:38.312Z,79.43
2018-01-02T18:25:05.716Z,80.28
2018-01-02T18:27:33.137Z,80.27
2018-01-02T18:30:00.541Z,80.78
2018-01-02T18:32:27.946Z,81.43
2018-01-02T18:34:55.358Z,82.21
2018-01-02T18:37:22.761Z,82.98
2018-01-02T18:39:50.173Z,84.12
2018-01-02T18:42:17.586Z,84.31
2018-01-02T18:44:45.010Z,85.12
2018-01-02T18:47:12.445Z,85.25
2018-01-02T18:49:39.846Z,86.25
2018-01-02T18:52:07.252Z,86.85
2018-01-02T18:54:34.676Z,87.07
2018-01-02T18:57:02.106Z,87.80
2018-01-02T18:59:29.518Z,88.71
2018-01-02T19:01:56.954Z,89.64
2018-01-02T19:04:24.371Z,90.19
2018-01-02T19:06:51.798Z,90.91
2018-01-02T19:09:19.232Z,91.28
2018-01-02T19:11:46.658Z,91.47
2018-01-02T19:14:14.069Z,91.82
2018-01-02T19:16:41.481Z,92.03
2018-01-02T19:19:08.899Z,92.06
2018-01-02T19:21:36.301Z,92.65
2018-01-02T19:24:03.709Z,92.70
2018-01-02T19:26:31.137Z,92.99
2018-01-02T19:28:58.540Z,93.10
2018-01-02T19:31:25.960Z,93.38
2018-01-02T19:33:53.354Z,93.70
2018-01-02T19:36:20.796Z,93.54
2018-01-02T19:38:48.204Z,93.95
2018-01-02T19:41:15.616Z,94.04
2018-01-02T19:43:43.432Z,94.30
2018-01-02T19:46:10.878Z,94.27
2018-01-02T19:48:38.307Z,94.32
2018-01-02T19:51:11.062Z,94.39
2018-01-02T19:53:38.515Z,94.33
2018-01-02T19:56:09.752Z,94.33
2018-01-02T19:58:37.181Z,94.28
2018-01-02T20:01:04.657Z,94.62
2018-01-02T20:03:32.105Z,94.63
2018-01-02T20:05:59.522Z,94.72
2018-01-02T20:08:26.950Z,94.87
2018-01-02T20:10:54.405Z,95.14
2018-01-02T20:13:21.872Z,95.49
2018-01-02T20:15:49.314Z,95.54
2018-01-02T20:18:22.218Z,95.70
2018-01-02T20:20:49.642Z,95.86
2018-01-02T20:23:17.075Z,96.25
2018-01-02T20:25:44.497Z,96.27
2018-01-02T20:28:11.930Z,96.59
2018-01-02T20:30:39.337Z,96.50
2018-01-02T20:33:06.744Z,96.57
2018-01-02T20:35:34.150Z,96.67
2018-01-02T20:38:01.562Z,96.76
2018-01-02T20:40:28.968Z,96.69
2018-01-02T20:42:59.829Z,96.56
2018-01-02T20:45:27.250Z,96.53
2018-01-02T20:47:54.649Z,96.40
2018-01-02T20:50:22.084Z,96.37
2018-01-02T20:52:49.502Z,96.28
2018-01-02T20:55:16.918Z,96.18
2018-01-02T20:57:44.361Z,96.07
2018-01-02T21:00:11.769Z,95.91
2018-01-02T21:02:39.184Z,95.87
2018-01-02T21:05:06.618Z,95.75
2018-01-02T21:07:34.038Z,95.66
2018-01-02T21:10:01.444Z,95.63
2018-01-02T21:12:28.884Z,95.39
2018-01-02T21:14:56.298Z,95.41
2018-01-02T21:17:23.704Z,95.43
2018-01-02T21:19:51.130Z,95.33
2018-01-02T21:22:18.530Z,95.40
2018-01-02T21:24:45.935Z,95.08
2018-01-02T21:27:13.340Z,95.29
2018-01-02T21:29:40.745Z,95.01
2018-01-02T21:32:08.162Z,94.98
2018-01-02T21:34:35.567Z,94.92
2018-01-02T21:37:02.987Z,94.74
2018-01-02T21:39:30.391Z,94.77
2018-01-02T21:41:57.796Z,94.62
2018-01-02T21:44:25.206Z,94.30
2018-01-02T21:46:52.615Z,94.60
2018-01-02T21:49:20.018Z,94.51
2018-01-02T21:51:47.421Z,94.40
2018-01-02T21:54:14.844Z,94.21
2018-01-02T21:56:42.254Z,94.43
2018-01-02T21:59:09.663Z,94.42
2018-01-02T22:01:37.071Z,94.47
2018-01-02T22:04:04.473Z,94.36
2018-01-02T22:06:31.897Z,94.49
2018-01-02T22:08:59.306Z,94.65
2018-01-02T22:11:26.733Z,94.87
2018-01-02T22:13:54.141Z,94.71
2018-01-02T22:16:21.553Z,95.10
2018-01-02T22:18:48.955Z,95.03
2018-01-02T22:21:16.368Z,95.15
2018-01-02T22:23:43.781Z,95.33
2018-01-02T22:26:11.185Z,95.45
2018-01-02T22:28:38.600Z,95.68
2018-01-02T22:31:06.005Z,95.99
2018-01-02T22:33:33.415Z,96.35
2018-01-02T22:36:00.820Z,96.22
2018-01-02T22:38:28.224Z,96.44
2018-01-02T22:40:55.632Z,96.19
2018-01-02T22:43:23.046Z,96.24
2018-01-02T22:45:50.464Z,96.06
2018-01-02T22:48:17.873Z,96.21
2018-01-02T22:50:45.280Z,96.25
2018-01-02T22:53:12.694Z,96.27
2018-01-02T22:55:40.178Z,96.28
2018-01-02T22:58:07.589Z,96.25
2018-01-02T23:00:34.995Z,96.25
2018-01-02T23:03:02.413Z,96.46
2018-01-02T23:05:29.820Z,96.63
2018-01-02T23:07:57.224Z,96.68
2018-01-02T23:10:24.667Z,96.55
2018-01-02T23:12:52.062Z,96.62
2018-01-02T23:15:19.469Z,96.80
2018-01-02T23:17:46.899Z,97.10
2018-01-02T23:20:14.321Z,97.00
2018-01-02T23:22:41.748Z,97.36
2018-01-02T23:25:09.145Z,97.35
2018-01-02T23:27:36.588Z,97.44
2018-01-02T23:30:03.996Z,97.32
2018-01-02T23:32:31.404Z,97.10
2018-01-02T23:34:58.853Z,97.25
2018-01-02T23:37:26.233Z,97.40
2018-01-02T23:39:53.641Z,97.39
2018-01-02T23:42:21.041Z,97.17
2018-01-02T23:44:48.456Z,97.29
2018-01-02T23:47:15.877Z,97.20
2018-01-02T23:49:43.297Z,97.47
2018-01-02T23:52:10.708Z,97.36
2018-01-02T23:54:38.151Z,97.43
2018-01-02T23:57:05.561Z,97.25
2018-01-02T23:59:32.981Z,97.30
